Time;durP1;ratioP1;P1;durP2;ratioP2;P2;SDS_P1;SDS_P2;PMS_P1;PMS_P2;Temp;Humidity;BMP_temperature;BMP_pressure;BME280_temperature;BME280_humidity;BME280_pressure;Samples;Min_cycle;Max_cycle;Signal;HPM_P1;HPM_P2
2022/12/16 00:00:20;;;;;;;;;;;-2.00;99.90;;;;;;5086737;28;19920;-69
2022/12/16 00:02:47;;;;;;;;;;;-2.10;99.90;;;;;;5086985;28;20199;-69
2022/12/16 00:05:14;;;;;;;;;;;-2.10;99.90;;;;;;5086617;28;19944;-69
2022/12/16 00:07:40;;;;;;;;;;;-2.10;99.90;;;;;;5086389;28;19959;-69
2022/12/16 00:10:09;;;;;;;;;;;-2.10;99.90;;;;;;5086623;28;20000;-68
2022/12/16 00:12:35;;;;;;;;;;;-2.10;99.90;;;;;;5086783;28;20178;-68
2022/12/16 00:15:02;;;;;;;;;;;-2.10;99.90;;;;;;5086509;28;19967;-68
2022/12/16 00:17:29;;;;;;;;;;;-2.10;99.90;;;;;;5086131;28;19943;-70
2022/12/16 00:19:56;;;;;;;;;;;-2.20;99.90;;;;;;5086433;28;20227;-69
2022/12/16 00:22:22;;;;;;;;;;;-2.20;99.90;;;;;;5086447;28;19928;-68
2022/12/16 00:24:49;;;;;;;;;;;-2.20;99.90;;;;;;5086420;28;19956;-68
2022/12/16 00:27:17;;;;;;;;;;;-2.20;99.90;;;;;;5077947;28;19962;-69
2022/12/16 00:29:44;;;;;;;;;;;-2.20;99.90;;;;;;5086017;28;19940;-70
2022/12/16 00:32:10;;;;;;;;;;;-2.20;99.90;;;;;;5065470;28;19959;-68
2022/12/16 00:34:37;;;;;;;;;;;-2.20;99.90;;;;;;5066407;28;19959;-68
2022/12/16 00:37:03;;;;;;;;;;;-2.20;99.90;;;;;;5062728;28;20187;-69
2022/12/16 00:39:30;;;;;;;;;;;-2.20;99.90;;;;;;5066075;28;20043;-69
2022/12/16 00:41:57;;;;;;;;;;;-2.20;99.90;;;;;;5066263;28;19948;-69
2022/12/16 00:44:25;;;;;;;;;;;-2.20;99.90;;;;;;5066245;28;20370;-69
2022/12/16 00:46:51;;;;;;;;;;;-2.20;99.90;;;;;;5065123;28;20171;-69
2022/12/16 00:49:18;;;;;;;;;;;-2.20;99.90;;;;;;5093098;28;19920;-69
2022/12/16 00:51:45;;;;;;;;;;;-2.10;99.90;;;;;;5106403;28;20011;-69
2022/12/16 00:54:11;;;;;;;;;;;-2.10;99.90;;;;;;5106282;28;20162;-68
2022/12/16 00:56:38;;;;;;;;;;;-2.20;99.90;;;;;;5105432;28;19951;-69
2022/12/16 00:59:04;;;;;;;;;;;-2.20;99.90;;;;;;5106334;28;20150;-69
2022/12/16 01:01:32;;;;;;;;;;;-2.20;99.90;;;;;;5106219;28;19995;-69
2022/12/16 01:03:59;;;;;;;;;;;-2.20;99.90;;;;;;5105984;28;19958;-69
2022/12/16 01:06:26;;;;;;;;;;;-2.20;99.90;;;;;;5105207;28;19966;-69
2022/12/16 01:08:52;;;;;;;;;;;-2.20;99.90;;;;;;5105751;28;19991;-69
2022/12/16 01:11:20;;;;;;;;;;;-2.20;99.90;;;;;;5106117;28;19920;-69
2022/12/16 01:13:49;;;;;;;;;;;-2.20;99.90;;;;;;5105957;28;19920;-69
2022/12/16 01:16:16;;;;;;;;;;;-2.20;99.90;;;;;;5086038;28;19959;-69
2022/12/16 01:18:44;;;;;;;;;;;-2.10;99.90;;;;;;5085646;28;19921;-69
2022/12/16 01:21:12;;;;;;;;;;;-2.10;99.90;;;;;;5085299;28;20255;-69
2022/12/16 01:23:39;;;;;;;;;;;-2.10;99.90;;;;;;5085563;28;19920;-68
2022/12/16 01:26:06;;;;;;;;;;;-2.10;99.90;;;;;;5084874;28;19963;-68
2022/12/16 01:28:33;;;;;;;;;;;-2.10;99.90;;;;;;5085530;28;19963;-69
2022/12/16 01:31:01;;;;;;;;;;;-2.20;99.90;;;;;;5085447;28;19947;-68
2022/12/16 01:33:28;;;;;;;;;;;-2.20;99.90;;;;;;5085457;28;19921;-69
2022/12/16 01:36:00;;;;;;;;;;;-2.20;99.90;;;;;;5084950;28;19929;-68
2022/12/16 01:38:26;;;;;;;;;;;-2.20;99.90;;;;;;5084852;28;20262;-68
2022/12/16 01:40:53;;;;;;;;;;;-2.20;99.90;;;;;;5085298;28;20176;-69
2022/12/16 01:43:21;;;;;;;;;;;-2.20;99.90;;;;;;5082479;28;19924;-69
2022/12/16 01:45:48;;;;;;;;;;;-2.20;99.90;;;;;;5084535;28;20231;-69
2022/12/16 01:48:20;;;;;;;;;;;-2.20;99.90;;;;;;5084413;28;20258;-69
2022/12/16 01:50:47;;;;;;;;;;;-2.30;99.90;;;;;;5084685;28;20264;-69
2022/12/16 01:53:16;;;;;;;;;;;-2.30;99.90;;;;;;5084864;28;20176;-69
2022/12/16 01:55:45;;;;;;;;;;;-2.30;99.90;;;;;;5084712;28;19951;-69
2022/12/16 01:58:13;;;;;;;;;;;-2.30;99.90;;;;;;5083845;28;19963;-69
2022/12/16 02:00:40;;;;;;;;;;;-2.30;99.90;;;;;;5084910;28;19955;-69
2022/12/16 02:03:07;;;;;;;;;;;-2.30;99.90;;;;;;5084507;28;19991;-69
2022/12/16 02:05:35;;;;;;;;;;;-2.30;99.90;;;;;;5084733;28;20174;-69
2022/12/16 02:08:06;;;;;;;;;;;-2.30;99.90;;;;;;5083982;28;19987;-69
2022/12/16 02:10:39;;;;;;;;;;;-2.30;99.90;;;;;;5084704;28;20139;-69
2022/12/16 02:13:12;;;;;;;;;;;-2.30;99.90;;;;;;5084847;28;19983;-69
2022/12/16 02:15:41;;;;;;;;;;;-2.40;99.90;;;;;;5084397;28;19987;-69
2022/12/16 02:18:14;;;;;;;;;;;-2.40;99.90;;;;;;5083784;28;19936;-69
2022/12/16 02:20:59;;;;;;;;;;;-2.50;99.90;;;;;;5084235;28;19980;-69
2022/12/16 02:23:36;;;;;;;;;;;-2.50;99.90;;;;;;5084402;28;20109;-68
2022/12/16 02:26:23;;;;;;;;;;;-2.50;99.90;;;;;;5083870;28;19928;-69
2022/12/16 02:29:10;;;;;;;;;;;-2.50;99.90;;;;;;5084046;28;19966;-69
2022/12/16 02:31:42;;;;;;;;;;;-2.60;99.90;;;;;;5058788;28;19963;-69
2022/12/16 02:34:12;;;;;;;;;;;-2.60;99.90;;;;;;5084263;28;19956;-69
2022/12/16 02:36:46;;;;;;;;;;;-2.60;99.90;;;;;;5083230;28;19920;-70
2022/12/16 02:39:14;;;;;;;;;;;-2.60;99.90;;;;;;5084228;28;19983;-69
2022/12/16 02:41:43;;;;;;;;;;;-2.60;99.90;;;;;;5084160;28;19920;-69
2022/12/16 02:44:11;;;;;;;;;;;-2.60;99.90;;;;;;5084131;28;19959;-69
2022/12/16 02:46:41;;;;;;;;;;;-2.70;99.90;;;;;;5063030;28;19960;-68
2022/12/16 02:49:08;;;;;;;;;;;-2.60;99.90;;;;;;5063618;28;19921;-69
2022/12/16 02:51:36;;;;;;;;;;;-2.60;99.90;;;;;;5063640;28;19984;-68
2022/12/16 02:54:04;;;;;;;;;;;-2.60;99.90;;;;;;5063593;28;19978;-69
2022/12/16 02:56:39;;;;;;;;;;;-2.60;99.90;;;;;;5063248;28;19963;-69
2022/12/16 02:59:10;;;;;;;;;;;-2.60;99.90;;;;;;5063949;28;20135;-68
2022/12/16 03:01:39;;;;;;;;;;;-2.60;99.90;;;;;;5063930;28;19927;-69
2022/12/16 03:04:11;;;;;;;;;;;-2.60;99.90;;;;;;5063183;28;20692;-69
2022/12/16 03:06:39;;;;;;;;;;;-2.60;99.90;;;;;;5063291;28;20146;-68
2022/12/16 03:09:08;;;;;;;;;;;-2.60;99.90;;;;;;5063601;28;20003;-69
2022/12/16 03:11:35;;;;;;;;;;;-2.60;99.90;;;;;;5063688;28;19959;-69
2022/12/16 03:14:03;;;;;;;;;;;-2.60;99.90;;;;;;5063447;28;20202;-68
2022/12/16 03:16:32;;;;;;;;;;;-2.60;99.90;;;;;;5062851;28;19988;-69
2022/12/16 03:19:01;;;;;;;;;;;-2.60;99.90;;;;;;5063713;28;19952;-68
2022/12/16 03:21:31;;;;;;;;;;;-2.60;99.90;;;;;;5063670;28;19921;-69
2022/12/16 03:23:59;;;;;;;;;;;-2.60;99.90;;;;;;5063362;28;19987;-69
2022/12/16 03:26:28;;;;;;;;;;;-2.60;99.90;;;;;;5062676;28;20265;-69
2022/12/16 03:28:58;;;;;;;;;;;-2.50;99.90;;;;;;5063622;28;19956;-69
2022/12/16 03:31:30;;;;;;;;;;;-2.50;99.90;;;;;;5063668;28;19952;-69
2022/12/16 03:33:59;;;;;;;;;;;-2.50;99.90;;;;;;5063152;28;19979;-69
2022/12/16 03:36:27;;;;;;;;;;;-2.50;99.90;;;;;;5062513;28;19964;-68
2022/12/16 03:38:55;;;;;;;;;;;-2.50;99.90;;;;;;5063263;28;20223;-69
2022/12/16 03:41:23;;;;;;;;;;;-2.50;99.90;;;;;;5091818;28;19952;-69
2022/12/16 03:43:50;;;;;;;;;;;-2.50;99.90;;;;;;5103503;28;19962;-68
2022/12/16 03:46:17;;;;;;;;;;;-2.50;99.90;;;;;;5103038;28;19952;-68
2022/12/16 03:48:47;;;;;;;;;;;-2.50;99.90;;;;;;5103496;28;19926;-69
2022/12/16 03:51:14;;;;;;;;;;;-2.60;99.90;;;;;;5103843;28;20227;-69
2022/12/16 03:53:41;;;;;;;;;;;-2.60;99.90;;;;;;5103524;28;19943;-69
2022/12/16 03:56:09;;;;;;;;;;;-2.60;99.90;;;;;;5086969;28;19924;-68
2022/12/16 03:58:38;;;;;;;;;;;-2.60;99.90;;;;;;5083345;28;19932;-69
2022/12/16 04:01:05;;;;;;;;;;;-2.60;99.90;;;;;;5083390;28;19927;-69
2022/12/16 04:03:32;;;;;;;;;;;-2.60;99.90;;;;;;5082881;28;20224;-69
2022/12/16 04:05:58;;;;;;;;;;;-2.60;99.90;;;;;;5082705;28;19968;-69
2022/12/16 04:08:25;;;;;;;;;;;-2.60;99.90;;;;;;5083065;28;19984;-68
2022/12/16 04:24:45;;;;;;;;;;;-2.40;99.90;;;;;;5081325;28;19931;-69
2022/12/16 04:27:26;;;;;;;;;;;-2.40;99.90;;;;;;5085989;28;19999;-68
